createdAt,value
2023-05-21T00:00:19.962Z,245.59
2023-05-21T00:01:19.935Z,243.02
2023-05-21T00:02:20.036Z,240.49
2023-05-21T00:03:19.998Z,237.38
2023-05-21T00:04:19.932Z,233.97
2023-05-21T00:05:19.949Z,233.58
2023-05-21T00:06:19.971Z,235.13
2023-05-21T00:07:19.956Z,235.74
2023-05-21T00:08:19.884Z,236.44
2023-05-21T00:09:19.880Z,235.11
2023-05-21T00:10:19.865Z,233.97
2023-05-21T00:11:19.906Z,233.07
2023-05-21T00:12:19.810Z,234.03
2023-05-21T00:13:19.784Z,235.28
2023-05-21T00:14:19.765Z,235.65
2023-05-21T00:15:19.742Z,235.56
2023-05-21T00:16:19.762Z,236.18
2023-05-21T00:17:19.749Z,240.82
2023-05-21T00:18:19.620Z,242.85
2023-05-21T00:19:19.620Z,239.93
2023-05-21T00:20:19.538Z,237.93
2023-05-21T00:21:19.489Z,238.69
2023-05-21T00:22:19.459Z,239.76
2023-05-21T00:23:19.402Z,238.94
2023-05-21T00:24:19.330Z,234.92
2023-05-21T00:25:19.292Z,231.67
2023-05-21T00:26:19.241Z,229.50
2023-05-21T00:27:19.241Z,227.34
2023-05-21T00:28:19.273Z,228.99
2023-05-21T00:29:19.143Z,231.86
2023-05-21T00:30:19.092Z,233.34
2023-05-21T00:31:19.091Z,234.07
2023-05-21T00:32:19.011Z,234.06
2023-05-21T00:33:18.968Z,233.16
2023-05-21T00:34:18.900Z,229.48
2023-05-21T00:35:18.847Z,225.62
2023-05-21T00:36:18.783Z,223.76
2023-05-21T00:37:18.738Z,221.89
2023-05-21T00:38:18.778Z,221.56
2023-05-21T00:39:18.661Z,222.92
2023-05-21T00:40:18.635Z,223.18
2023-05-21T00:41:18.552Z,223.47
2023-05-21T00:42:18.522Z,225.59
2023-05-21T00:43:18.465Z,226.40
2023-05-21T00:44:18.408Z,227.60
2023-05-21T00:45:18.368Z,225.68
2023-05-21T00:46:18.380Z,223.97
2023-05-21T00:47:18.317Z,224.64
2023-05-21T00:48:18.243Z,226.91
2023-05-21T00:49:18.209Z,228.54
2023-05-21T00:50:18.203Z,227.14
2023-05-21T00:51:18.142Z,223.29
2023-05-21T00:52:18.094Z,219.40
2023-05-21T00:53:18.064Z,219.30
2023-05-21T00:54:18.025Z,221.99
2023-05-21T00:55:17.990Z,224.39
2023-05-21T00:56:17.943Z,224.70
2023-05-21T00:57:17.894Z,222.95
2023-05-21T00:58:17.859Z,221.87
2023-05-21T00:59:17.808Z,223.50
2023-05-21T01:00:17.781Z,224.74
2023-05-21T01:01:17.798Z,224.40
2023-05-21T01:02:17.725Z,223.24
2023-05-21T01:03:17.737Z,223.64
2023-05-21T01:04:17.689Z,223.82
2023-05-21T01:05:17.612Z,224.46
2023-05-21T01:06:17.622Z,223.40
2023-05-21T01:07:17.545Z,223.98
2023-05-21T01:08:17.501Z,225.31
2023-05-21T01:09:17.452Z,226.21
2023-05-21T01:10:17.429Z,226.67
2023-05-21T01:11:17.381Z,227.95
2023-05-21T01:12:17.337Z,229.52
2023-05-21T01:13:17.309Z,228.89
2023-05-21T01:14:17.275Z,228.86
2023-05-21T01:15:17.205Z,228.46
2023-05-21T01:16:17.260Z,228.87
2023-05-21T01:17:17.148Z,229.57
2023-05-21T01:18:17.095Z,229.56
2023-05-21T01:19:17.123Z,230.00
2023-05-21T01:20:17.002Z,230.54
2023-05-21T01:21:16.953Z,231.13
2023-05-21T01:22:16.928Z,230.93
2023-05-21T01:23:16.896Z,230.31
2023-05-21T01:24:16.832Z,229.51
2023-05-21T01:25:16.804Z,230.69
2023-05-21T01:26:16.807Z,228.43
2023-05-21T01:27:16.713Z,229.99
2023-05-21T01:28:16.658Z,230.44
2023-05-21T01:29:16.623Z,228.24
2023-05-21T01:30:16.589Z,225.92
2023-05-21T01:31:16.655Z,224.86
2023-05-21T01:32:16.519Z,223.36
2023-05-21T01:33:16.575Z,222.03
2023-05-21T01:34:16.465Z,220.41
2023-05-21T01:35:16.495Z,221.26
2023-05-21T01:36:16.429Z,221.81
2023-05-21T01:37:16.424Z,222.35
2023-05-21T01:38:16.402Z,219.33
2023-05-21T01:39:16.388Z,219.30
2023-05-21T01:40:16.380Z,219.70
2023-05-21T01:41:16.390Z,218.89
2023-05-21T01:42:16.369Z,216.99
2023-05-21T01:43:16.368Z,214.97
2023-05-21T01:44:16.417Z,209.72
2023-05-21T01:45:16.397Z,208.89
2023-05-21T01:46:16.470Z,210.72
2023-05-21T01:47:16.395Z,208.96
2023-05-21T01:48:16.455Z,208.20
2023-05-21T01:49:16.417Z,211.61
2023-05-21T01:50:16.393Z,214.01
2023-05-21T01:51:16.362Z,216.98
2023-05-21T01:52:16.363Z,216.33
2023-05-21T01:53:16.353Z,215.75
2023-05-21T01:54:16.351Z,216.56
2023-05-21T01:55:16.362Z,216.32
2023-05-21T01:56:16.334Z,218.12
2023-05-21T01:57:16.353Z,218.24
2023-05-21T01:58:16.375Z,218.07
2023-05-21T01:59:16.391Z,216.07
2023-05-21T02:00:16.398Z,215.97
2023-05-21T02:01:16.369Z,214.94
2023-05-21T02:02:16.463Z,213.90
2023-05-21T02:03:16.532Z,213.37
2023-05-21T02:04:16.397Z,215.40
2023-05-21T02:05:16.421Z,217.90
2023-05-21T02:06:16.401Z,220.58
2023-05-21T02:07:16.391Z,220.67
2023-05-21T02:08:16.385Z,222.23
2023-05-21T02:09:16.373Z,221.30
2023-05-21T02:10:16.383Z,221.02
2023-05-21T02:11:16.387Z,219.76
2023-05-21T02:12:16.450Z,219.97
2023-05-21T02:13:16.400Z,222.78
2023-05-21T02:14:16.477Z,226.64
2023-05-21T02:15:16.379Z,230.31
2023-05-21T02:16:16.447Z,231.60
2023-05-21T02:17:16.469Z,232.91
2023-05-21T02:18:16.394Z,232.77
2023-05-21T02:19:16.500Z,232.23
2023-05-21T02:20:16.408Z,231.13
2023-05-21T02:21:16.391Z,231.99
2023-05-21T02:22:16.395Z,233.61
2023-05-21T02:23:16.439Z,233.95
2023-05-21T02:24:16.451Z,235.27
2023-05-21T02:25:16.470Z,235.84
2023-05-21T02:26:16.473Z,234.27
2023-05-21T02:27:16.438Z,229.07
2023-05-21T02:28:16.466Z,225.25
2023-05-21T02:29:16.444Z,223.59
2023-05-21T02:30:16.463Z,222.01
2023-05-21T02:31:16.472Z,224.55
2023-05-21T02:32:16.482Z,226.90
2023-05-21T02:33:16.491Z,225.96
2023-05-21T02:34:16.540Z,227.16
2023-05-21T02:35:16.521Z,226.67
2023-05-21T02:36:16.533Z,225.29
2023-05-21T02:37:16.566Z,221.49
2023-05-21T02:38:16.608Z,223.04
2023-05-21T02:39:16.612Z,225.52
2023-05-21T02:40:16.617Z,225.28
2023-05-21T02:41:16.633Z,226.59
2023-05-21T02:42:16.682Z,229.62
2023-05-21T02:43:16.704Z,232.22
2023-05-21T02:44:16.676Z,233.96
2023-05-21T02:45:16.696Z,231.41
2023-05-21T02:46:16.747Z,228.30
2023-05-21T02:47:16.704Z,229.48
2023-05-21T02:48:16.710Z,229.10
2023-05-21T02:49:16.730Z,227.44
2023-05-21T02:50:16.759Z,227.23
2023-05-21T02:51:16.778Z,227.67
2023-05-21T02:52:16.799Z,227.03
2023-05-21T02:53:16.818Z,226.14
2023-05-21T02:54:16.861Z,227.93
2023-05-21T02:55:16.855Z,226.12
2023-05-21T02:56:16.880Z,227.89
2023-05-21T02:57:16.874Z,228.86
2023-05-21T02:58:16.907Z,228.87
2023-05-21T02:59:16.890Z,227.94
2023-05-21T03:00:16.900Z,226.58
2023-05-21T03:01:16.962Z,224.08
2023-05-21T03:02:16.970Z,224.64
2023-05-21T03:03:17.076Z,224.14
2023-05-21T03:04:16.972Z,223.21
2023-05-21T03:05:17.003Z,220.76
2023-05-21T03:06:17.020Z,220.14
2023-05-21T03:07:17.049Z,222.79
2023-05-21T03:08:17.075Z,225.20
2023-05-21T03:09:17.118Z,226.25
2023-05-21T03:10:17.136Z,226.76
2023-05-21T03:11:17.160Z,228.79
2023-05-21T03:12:17.156Z,230.07
2023-05-21T03:13:17.229Z,229.78
2023-05-21T03:14:17.200Z,230.04
2023-05-21T03:15:17.256Z,231.24
2023-05-21T03:16:17.325Z,229.24
2023-05-21T03:17:17.297Z,225.02
2023-05-21T03:18:17.352Z,223.01
2023-05-21T03:19:17.405Z,221.52
2023-05-21T03:20:17.418Z,221.26
2023-05-21T03:21:17.430Z,221.42
2023-05-21T03:22:17.467Z,224.52
2023-05-21T03:23:17.517Z,227.72
2023-05-21T03:24:17.686Z,229.64
2023-05-21T03:25:17.593Z,231.01
2023-05-21T03:26:17.711Z,231.89
2023-05-21T03:27:17.665Z,232.59
2023-05-21T03:28:17.705Z,231.39
2023-05-21T03:29:17.717Z,231.67
2023-05-21T03:30:17.756Z,232.74
2023-05-21T03:31:17.769Z,233.73
2023-05-21T03:32:17.879Z,234.18
2023-05-21T03:33:17.823Z,234.83
2023-05-21T03:34:17.848Z,235.82
2023-05-21T03:35:17.856Z,236.40
2023-05-21T03:36:17.856Z,236.35
2023-05-21T03:37:17.864Z,236.97
2023-05-21T03:38:17.923Z,239.71
2023-05-21T03:39:17.952Z,240.69
2023-05-21T03:40:17.962Z,240.28
2023-05-21T03:41:17.960Z,238.82
2023-05-21T03:42:17.980Z,240.95
2023-05-21T03:43:18.005Z,242.31
2023-05-21T03:44:18.026Z,238.55
2023-05-21T03:45:18.040Z,236.75
2023-05-21T03:46:18.149Z,238.27
2023-05-21T03:47:18.149Z,238.07
2023-05-21T03:48:18.130Z,236.14
2023-05-21T03:49:18.757Z,236.12
2023-05-21T03:50:18.216Z,235.80
2023-05-21T03:51:18.294Z,232.10
2023-05-21T03:52:18.245Z,231.14
2023-05-21T03:53:18.265Z,232.39
2023-05-21T03:54:18.291Z,233.89
2023-05-21T03:55:18.357Z,235.05
2023-05-21T03:56:18.320Z,234.35
2023-05-21T03:57:18.377Z,232.77
2023-05-21T03:58:18.393Z,231.72
2023-05-21T03:59:18.418Z,229.22
2023-05-21T04:00:18.450Z,227.85
2023-05-21T04:01:18.469Z,222.77
2023-05-21T04:02:18.655Z,218.11
2023-05-21T04:03:18.831Z,215.69
2023-05-21T04:04:18.646Z,213.71
2023-05-21T04:05:18.631Z,215.03
2023-05-21T04:06:18.740Z,217.97
2023-05-21T04:07:18.758Z,219.18
2023-05-21T04:08:18.703Z,219.81
2023-05-21T04:09:18.752Z,222.42
2023-05-21T04:10:18.772Z,223.88
2023-05-21T04:11:18.788Z,223.88
2023-05-21T04:12:19.758Z,223.96
2023-05-21T04:13:18.726Z,223.97
2023-05-21T04:14:18.684Z,223.31
2023-05-21T04:15:18.682Z,221.97
2023-05-21T04:16:18.659Z,221.45
2023-05-21T04:17:18.601Z,221.67
2023-05-21T04:18:18.582Z,223.90
2023-05-21T04:19:18.618Z,225.29
2023-05-21T04:20:18.522Z,224.97
2023-05-21T04:21:18.480Z,222.89
2023-05-21T04:22:18.482Z,220.65
2023-05-21T04:23:18.453Z,220.47
2023-05-21T04:24:18.395Z,220.26
2023-05-21T04:25:18.413Z,217.71
2023-05-21T04:26:18.342Z,213.32
2023-05-21T04:27:18.372Z,212.74
2023-05-21T04:28:18.266Z,215.17
2023-05-21T04:29:18.221Z,217.60
2023-05-21T04:30:18.188Z,220.58
2023-05-21T04:31:18.201Z,223.04
2023-05-21T04:32:18.123Z,223.47
2023-05-21T04:33:18.581Z,224.18
2023-05-21T04:34:18.085Z,226.10
2023-05-21T04:35:18.062Z,227.79
2023-05-21T04:36:18.095Z,228.97
2023-05-21T04:37:18.003Z,228.48
2023-05-21T04:38:18.061Z,226.36
2023-05-21T04:39:17.989Z,226.41
2023-05-21T04:40:18.034Z,226.47
2023-05-21T04:41:17.961Z,227.35
2023-05-21T04:42:17.973Z,229.81
2023-05-21T04:43:17.980Z,233.04
2023-05-21T04:44:18.110Z,237.21
2023-05-21T04:45:18.013Z,239.31
2023-05-21T04:46:18.048Z,240.92
2023-05-21T04:47:17.951Z,240.40
2023-05-21T04:48:17.907Z,239.09
2023-05-21T04:49:17.877Z,238.50
2023-05-21T04:50:17.850Z,236.31
2023-05-21T04:51:17.850Z,234.44
2023-05-21T04:52:17.869Z,235.15
2023-05-21T04:53:17.761Z,233.21
2023-05-21T04:54:17.736Z,230.24
2023-05-21T04:55:17.723Z,226.96
2023-05-21T04:56:17.694Z,226.01
2023-05-21T04:57:17.619Z,224.96
2023-05-21T04:58:17.616Z,224.85
2023-05-21T04:59:17.570Z,225.84
2023-05-21T05:00:17.614Z,227.38
2023-05-21T05:01:17.537Z,228.04
2023-05-21T05:02:17.534Z,228.83
2023-05-21T05:03:17.513Z,233.18
2023-05-21T05:04:17.411Z,234.55
2023-05-21T05:05:17.373Z,231.85
2023-05-21T05:06:17.404Z,229.35
2023-05-21T05:07:17.300Z,227.53
2023-05-21T05:08:17.237Z,224.27
2023-05-21T05:09:17.210Z,223.15
2023-05-21T05:10:17.167Z,222.34
2023-05-21T05:11:17.152Z,221.96
2023-05-21T05:12:17.140Z,223.36
2023-05-21T05:13:17.127Z,224.62
2023-05-21T05:14:17.027Z,223.33
2023-05-21T05:15:17.034Z,220.77
2023-05-21T05:16:16.988Z,217.02
2023-05-21T05:17:16.993Z,214.79
2023-05-21T05:18:16.915Z,212.17
2023-05-21T05:19:16.917Z,211.19
2023-05-21T05:20:16.822Z,210.15
2023-05-21T05:21:16.755Z,210.61
2023-05-21T05:22:16.721Z,211.69
2023-05-21T05:23:16.691Z,212.28
2023-05-21T05:24:16.672Z,213.63
2023-05-21T05:25:16.698Z,215.31
2023-05-21T05:26:16.737Z,215.53
2023-05-21T05:27:16.787Z,213.53
2023-05-21T05:28:16.780Z,213.16
2023-05-21T05:29:16.772Z,215.39
2023-05-21T05:30:16.781Z,216.83
2023-05-21T05:31:16.832Z,216.09
2023-05-21T05:32:16.796Z,216.78
2023-05-21T05:33:16.863Z,216.73
2023-05-21T05:34:16.791Z,214.54
2023-05-21T05:35:16.787Z,208.86
2023-05-21T05:36:16.821Z,207.17
2023-05-21T05:37:16.805Z,208.17
2023-05-21T05:38:16.794Z,211.08
2023-05-21T05:39:16.865Z,213.55
2023-05-21T05:40:16.803Z,213.76
2023-05-21T05:41:16.797Z,210.96
2023-05-21T05:42:16.810Z,207.27
2023-05-21T05:43:16.864Z,204.66
2023-05-21T05:44:16.866Z,203.63
2023-05-21T05:45:16.886Z,203.39
2023-05-21T05:46:16.960Z,201.77
2023-05-21T05:47:16.954Z,197.93
2023-05-21T05:48:16.967Z,196.03
2023-05-21T05:49:17.006Z,196.79
2023-05-21T05:50:17.024Z,197.75
2023-05-21T05:51:17.059Z,199.13
2023-05-21T05:52:17.083Z,202.24
2023-05-21T05:53:17.076Z,203.39
2023-05-21T05:54:17.076Z,201.76
2023-05-21T05:55:17.107Z,201.11
2023-05-21T05:56:17.190Z,201.75
2023-05-21T05:57:17.133Z,202.80
2023-05-21T05:58:17.081Z,203.97
2023-05-21T05:59:17.060Z,205.63
2023-05-21T06:00:17.032Z,202.94
2023-05-21T06:01:17.034Z,201.65
2023-05-21T06:02:17.053Z,203.55
2023-05-21T06:03:17.045Z,206.72
2023-05-21T06:04:16.984Z,209.28
2023-05-21T06:05:17.183Z,210.41
2023-05-21T06:06:17.122Z,211.87
2023-05-21T06:07:17.027Z,211.66
2023-05-21T06:08:17.031Z,209.65
2023-05-21T06:09:17.045Z,206.13
2023-05-21T06:10:17.057Z,203.39
2023-05-21T06:11:17.166Z,203.07
2023-05-21T06:12:17.108Z,207.35
2023-05-21T06:13:17.111Z,212.89
2023-05-21T06:14:17.121Z,216.79
2023-05-21T06:15:17.214Z,218.02
2023-05-21T06:16:17.246Z,217.85
2023-05-21T06:17:17.133Z,217.96
2023-05-21T06:18:17.146Z,217.02
2023-05-21T06:19:17.189Z,214.07
2023-05-21T06:20:17.097Z,208.95
2023-05-21T06:21:17.106Z,203.15
2023-05-21T06:22:17.075Z,200.91
2023-05-21T06:23:17.058Z,201.90
2023-05-21T06:24:17.041Z,201.34
2023-05-21T06:25:17.039Z,196.65
2023-05-21T06:26:16.996Z,194.00
2023-05-21T06:27:16.989Z,194.32
2023-05-21T06:28:16.942Z,196.66
2023-05-21T06:29:16.904Z,197.93
2023-05-21T06:30:16.900Z,195.97
2023-05-21T06:31:16.854Z,194.80
2023-05-21T06:32:17.095Z,196.75
2023-05-21T06:33:16.894Z,196.27
2023-05-21T06:34:16.753Z,197.50
2023-05-21T06:35:16.735Z,197.66
2023-05-21T06:36:16.734Z,201.53
2023-05-21T06:37:16.626Z,205.49
2023-05-21T06:38:16.584Z,204.25
2023-05-21T06:39:16.668Z,204.13
2023-05-21T06:40:17.007Z,205.44
2023-05-21T06:41:17.033Z,208.18
2023-05-21T06:42:17.210Z,213.01
2023-05-21T06:43:17.443Z,214.78
2023-05-21T06:44:17.615Z,205.69
2023-05-21T06:45:17.818Z,196.79
2023-05-21T06:46:18.082Z,192.86
2023-05-21T06:47:18.176Z,188.78
2023-05-21T06:48:18.358Z,186.35
2023-05-21T06:49:18.559Z,182.97
2023-05-21T06:50:18.749Z,179.60
2023-05-21T06:51:18.949Z,178.28
2023-05-21T06:52:19.165Z,180.78
2023-05-21T06:53:19.348Z,183.24
2023-05-21T06:54:19.602Z,183.58
2023-05-21T06:55:19.724Z,176.50
2023-05-21T06:56:19.883Z,176.63
2023-05-21T06:57:20.096Z,180.81
2023-05-21T06:58:20.235Z,185.17
2023-05-21T06:59:20.370Z,187.86
2023-05-21T07:00:20.541Z,189.86
2023-05-21T07:01:20.732Z,191.50
2023-05-21T07:02:20.924Z,185.26
2023-05-21T07:03:21.071Z,184.80
2023-05-21T07:04:21.254Z,177.82
2023-05-21T07:05:21.384Z,165.70
2023-05-21T07:06:21.597Z,164.88
2023-05-21T07:07:21.692Z,164.01
2023-05-21T07:08:21.932Z,159.29
2023-05-21T07:09:22.139Z,150.74
2023-05-21T07:10:22.317Z,149.32
2023-05-21T07:11:22.546Z,150.05
2023-05-21T07:12:22.632Z,154.78
2023-05-21T07:13:22.786Z,159.48
2023-05-21T07:14:22.951Z,162.30
2023-05-21T07:15:23.104Z,161.29
2023-05-21T07:16:23.312Z,161.53
2023-05-21T07:17:23.497Z,159.32
2023-05-21T07:18:23.669Z,155.06
2023-05-21T07:19:23.821Z,151.36
2023-05-21T07:20:23.908Z,158.11
2023-05-21T07:21:24.023Z,161.13
2023-05-21T07:22:25.949Z,161.02
2023-05-21T07:23:24.092Z,161.56
2023-05-21T07:24:23.986Z,161.23
2023-05-21T07:25:23.918Z,160.93
2023-05-21T07:26:23.853Z,158.96
2023-05-21T07:27:25.667Z,156.19
2023-05-21T07:28:23.709Z,156.33
2023-05-21T07:29:23.651Z,157.78
2023-05-21T07:30:23.613Z,161.57
2023-05-21T07:31:23.626Z,167.48
2023-05-21T07:32:23.612Z,170.67
2023-05-21T07:33:23.532Z,170.11
2023-05-21T07:34:23.465Z,177.54
2023-05-21T07:35:23.414Z,181.98
2023-05-21T07:36:23.380Z,173.19
2023-05-21T07:37:23.402Z,161.43
2023-05-21T07:38:23.320Z,157.63
2023-05-21T07:39:23.288Z,150.64
2023-05-21T07:40:23.252Z,148.37
2023-05-21T07:41:23.255Z,145.43
2023-05-21T07:42:23.213Z,143.22
2023-05-21T07:43:23.197Z,140.08
2023-05-21T07:44:23.158Z,136.86
2023-05-21T07:45:23.398Z,136.27
2023-05-21T07:46:23.531Z,141.03
2023-05-21T07:47:23.766Z,146.86
2023-05-21T07:48:23.909Z,150.73
2023-05-21T07:49:24.071Z,150.08
2023-05-21T07:50:24.216Z,125.21
2023-05-21T07:51:24.364Z,106.56
2023-05-21T07:52:24.614Z,88.19
2023-05-21T07:53:24.713Z,82.76
2023-05-21T07:54:24.888Z,85.80
2023-05-21T07:55:25.049Z,91.52
2023-05-21T07:56:25.206Z,99.78
2023-05-21T07:57:25.404Z,108.42
2023-05-21T07:58:25.518Z,114.29
2023-05-21T07:59:25.664Z,113.53
2023-05-21T08:00:25.816Z,99.72
2023-05-21T08:01:25.935Z,93.21
2023-05-21T08:02:26.235Z,93.29
2023-05-21T08:03:26.413Z,97.63
2023-05-21T08:04:26.271Z,107.11
2023-05-21T08:05:26.102Z,105.47
2023-05-21T08:06:26.019Z,102.84
2023-05-21T08:07:25.965Z,101.56
2023-05-21T08:08:25.888Z,103.30
2023-05-21T08:09:25.818Z,106.76
2023-05-21T08:10:25.745Z,100.67
2023-05-21T08:11:25.650Z,91.14
2023-05-21T08:12:25.644Z,88.89
2023-05-21T08:13:25.564Z,85.62
2023-05-21T08:14:25.518Z,88.54
2023-05-21T08:15:25.363Z,90.21
2023-05-21T08:16:25.397Z,91.10
2023-05-21T08:17:25.242Z,94.40
2023-05-21T08:18:25.179Z,85.64
2023-05-21T08:19:25.124Z,82.25
2023-05-21T08:20:25.005Z,76.25
2023-05-21T08:21:24.918Z,64.98
2023-05-21T08:22:24.908Z,59.98
2023-05-21T08:23:25.027Z,57.43
2023-05-21T08:24:25.160Z,51.65
2023-05-21T08:25:25.327Z,52.65
2023-05-21T08:26:25.493Z,47.96
2023-05-21T08:27:25.660Z,36.12
2023-05-21T08:28:25.856Z,25.51
2023-05-21T08:29:25.940Z,28.24
2023-05-21T08:30:26.071Z,34.80
2023-05-21T08:31:26.224Z,39.53
2023-05-21T08:32:26.367Z,44.16
2023-05-21T08:33:26.543Z,45.31
2023-05-21T08:34:26.738Z,35.37
2023-05-21T08:35:26.821Z,21.46
2023-05-21T08:36:26.985Z,24.74
2023-05-21T08:37:27.163Z,22.70
2023-05-21T08:38:29.494Z,20.08
2023-05-21T08:39:27.267Z,25.01
2023-05-21T08:40:27.166Z,21.96
2023-05-21T08:41:27.045Z,5.08
2023-05-21T08:42:36.453Z,4.42
2023-05-21T08:43:27.838Z,0.00
2023-05-21T08:44:26.704Z,0.00
2023-05-21T08:45:26.576Z,0.00
2023-05-21T08:46:26.548Z,1.08
2023-05-21T08:47:26.348Z,3.51
2023-05-21T08:48:26.254Z,6.98
2023-05-21T08:49:27.312Z,13.87
2023-05-21T08:50:26.020Z,21.80
2023-05-21T08:51:25.944Z,26.50
2023-05-21T08:52:25.734Z,32.44
2023-05-21T08:53:28.595Z,34.78
2023-05-21T08:54:25.492Z,29.62
2023-05-21T08:55:25.353Z,27.88
2023-05-21T08:56:25.227Z,22.77
2023-05-21T08:57:25.165Z,26.48
2023-05-21T08:58:24.985Z,30.24
2023-05-21T08:59:25.087Z,24.70
2023-05-21T09:00:25.238Z,27.39
2023-05-21T09:01:26.560Z,37.16
2023-05-21T09:02:25.288Z,36.67
2023-05-21T09:03:25.135Z,37.77
2023-05-21T09:04:24.972Z,28.46
2023-05-21T09:05:24.828Z,20.48
2023-05-21T09:06:24.710Z,22.33
2023-05-21T09:07:24.574Z,32.12
2023-05-21T09:08:24.444Z,43.19
2023-05-21T09:09:24.317Z,43.71
2023-05-21T09:10:24.255Z,53.96
2023-05-21T09:11:24.139Z,60.06
2023-05-21T09:12:23.947Z,53.86
2023-05-21T09:13:23.854Z,44.80
2023-05-21T09:14:23.668Z,38.99
2023-05-21T09:15:23.516Z,41.52
2023-05-21T09:16:23.435Z,42.40
2023-05-21T09:17:23.259Z,51.37
2023-05-21T09:18:23.115Z,54.37
2023-05-21T09:19:23.135Z,57.15
2023-05-21T09:20:22.852Z,60.50
2023-05-21T09:21:22.760Z,64.23
2023-05-21T09:22:22.596Z,62.67
2023-05-21T09:23:22.483Z,54.45
2023-05-21T09:24:22.351Z,56.89
2023-05-21T09:25:22.172Z,60.55
2023-05-21T09:26:22.032Z,55.11
2023-05-21T09:27:21.901Z,64.74
2023-05-21T09:28:21.749Z,66.73
2023-05-21T09:29:21.618Z,66.85
2023-05-21T09:30:25.948Z,61.43
2023-05-21T09:31:22.372Z,59.72
2023-05-21T09:32:21.266Z,59.88
2023-05-21T09:33:21.087Z,55.40
2023-05-21T09:34:21.039Z,50.58
2023-05-21T09:35:20.844Z,47.67
2023-05-21T09:36:20.691Z,45.63
2023-05-21T09:38:21.409Z,39.65
2023-05-21T09:39:20.281Z,38.63
2023-05-21T09:40:20.201Z,46.52
2023-05-21T09:41:21.833Z,49.58
2023-05-21T09:42:19.886Z,50.93
2023-05-21T09:43:19.749Z,53.29
2023-05-21T09:44:19.670Z,46.94
2023-05-21T09:45:19.638Z,41.69
2023-05-21T09:46:19.523Z,40.80
2023-05-21T09:47:19.451Z,36.38
2023-05-21T09:48:19.293Z,38.21
2023-05-21T09:49:19.231Z,45.99
2023-05-21T09:50:19.209Z,46.40
2023-05-21T09:51:19.083Z,43.14
2023-05-21T09:52:19.019Z,39.43
2023-05-21T09:53:18.942Z,37.23
2023-05-21T09:54:18.868Z,33.48
2023-05-21T09:55:18.828Z,30.64
2023-05-21T09:56:18.733Z,27.49
2023-05-21T09:57:18.628Z,25.00
2023-05-21T09:58:18.595Z,25.97
2023-05-21T09:59:18.429Z,33.05
2023-05-21T10:00:18.371Z,30.21
2023-05-21T10:01:18.312Z,30.21
2023-05-21T10:02:18.285Z,35.03
2023-05-21T10:03:18.529Z,33.24
2023-05-21T10:04:18.072Z,40.26
2023-05-21T10:05:17.941Z,36.90
2023-05-21T10:06:17.859Z,32.94
2023-05-21T10:07:17.751Z,43.58
2023-05-21T10:08:17.655Z,44.88
2023-05-21T10:09:17.557Z,40.00
2023-05-21T10:10:17.555Z,36.42
2023-05-21T10:11:17.408Z,32.18
2023-05-21T10:12:17.351Z,35.09
2023-05-21T10:13:17.234Z,32.02
2023-05-21T10:14:17.102Z,32.51
2023-05-21T10:15:17.004Z,38.50
2023-05-21T10:16:16.914Z,33.03
2023-05-21T10:17:17.368Z,30.09
2023-05-21T10:18:16.685Z,34.48
2023-05-21T10:19:16.624Z,47.57
2023-05-21T10:20:16.561Z,54.94
2023-05-21T10:21:16.371Z,48.93
2023-05-21T10:22:16.260Z,49.29
2023-05-21T10:23:16.161Z,42.41
2023-05-21T10:24:16.084Z,36.27
2023-05-21T10:25:15.999Z,39.31
2023-05-21T10:26:15.908Z,41.98
2023-05-21T10:27:15.765Z,44.31
2023-05-21T10:28:15.656Z,55.58
2023-05-21T10:29:17.301Z,64.38
2023-05-21T10:30:15.396Z,71.64
2023-05-21T10:31:15.228Z,73.87
2023-05-21T10:32:15.114Z,60.55
2023-05-21T10:33:14.937Z,60.33
2023-05-21T10:34:14.765Z,46.39
2023-05-21T10:35:14.577Z,36.87
2023-05-21T10:36:14.418Z,27.59
2023-05-21T10:37:14.467Z,28.30
2023-05-21T10:38:14.535Z,35.56
2023-05-21T10:39:14.685Z,45.01
2023-05-21T10:40:14.745Z,40.13
2023-05-21T10:41:14.826Z,35.42
2023-05-21T10:42:15.054Z,36.93
2023-05-21T10:43:15.130Z,34.68
2023-05-21T10:44:15.263Z,23.07
2023-05-21T10:45:15.272Z,20.61
2023-05-21T10:46:15.513Z,8.29
2023-05-21T10:47:15.539Z,8.74
2023-05-21T10:48:15.638Z,5.92
2023-05-21T10:49:15.701Z,22.77
2023-05-21T10:50:15.830Z,29.36
2023-05-21T10:51:15.952Z,40.72
2023-05-21T10:52:15.967Z,50.96
2023-05-21T10:53:16.130Z,38.93
2023-05-21T10:54:16.196Z,32.23
2023-05-21T10:55:16.361Z,21.84
2023-05-21T10:56:16.453Z,12.13
2023-05-21T10:57:16.540Z,11.98
2023-05-21T10:58:16.651Z,7.61
2023-05-21T10:59:16.759Z,17.43
2023-05-21T11:00:16.872Z,33.75
2023-05-21T11:01:17.014Z,24.02
2023-05-21T11:02:17.065Z,25.56
2023-05-21T11:03:17.358Z,35.03
2023-05-21T11:04:17.356Z,63.40
2023-05-21T11:05:17.448Z,98.29
2023-05-21T11:06:17.618Z,102.73
2023-05-21T11:07:17.768Z,106.16
2023-05-21T11:08:17.834Z,91.58
2023-05-21T11:09:17.973Z,53.59
2023-05-21T11:10:18.217Z,58.72
2023-05-21T11:11:18.209Z,66.36
2023-05-21T11:12:18.303Z,89.84
2023-05-21T11:13:18.432Z,104.81
2023-05-21T11:14:20.286Z,120.00
2023-05-21T11:15:18.396Z,120.74
2023-05-21T11:16:18.227Z,125.63
2023-05-21T11:17:18.220Z,136.79
2023-05-21T11:18:18.023Z,152.40
2023-05-21T11:19:17.984Z,174.71
2023-05-21T11:20:17.807Z,175.09
2023-05-21T11:21:17.603Z,179.50
2023-05-21T11:22:17.456Z,176.75
2023-05-21T11:23:17.403Z,164.49
2023-05-21T11:24:17.171Z,160.67
2023-05-21T11:25:17.168Z,171.44
2023-05-21T11:26:17.274Z,183.49
2023-05-21T11:27:17.349Z,193.34
2023-05-21T11:28:17.409Z,196.60
2023-05-21T11:29:18.399Z,199.63
2023-05-21T11:30:17.400Z,200.16
2023-05-21T11:31:17.221Z,202.46
2023-05-21T11:32:17.055Z,205.21
2023-05-21T11:33:16.971Z,194.95
2023-05-21T11:34:16.786Z,189.92
2023-05-21T11:35:16.598Z,172.72
2023-05-21T11:36:16.485Z,163.05
2023-05-21T11:37:16.506Z,166.99
2023-05-21T11:38:16.581Z,160.85
2023-05-21T11:39:16.713Z,154.77
2023-05-21T11:40:16.770Z,156.72
2023-05-21T11:41:16.920Z,154.69
2023-05-21T11:42:17.068Z,139.90
2023-05-21T11:43:17.110Z,128.45
2023-05-21T11:44:17.277Z,120.56
2023-05-21T11:45:17.437Z,114.32
2023-05-21T11:46:17.648Z,108.35
2023-05-21T11:47:17.749Z,108.41
2023-05-21T11:48:17.872Z,105.96
2023-05-21T11:49:17.956Z,106.39
2023-05-21T11:50:18.117Z,109.44
2023-05-21T11:51:18.173Z,108.72
2023-05-21T11:52:18.362Z,113.18
2023-05-21T11:53:18.448Z,117.18
2023-05-21T11:54:18.575Z,98.19
2023-05-21T11:55:18.795Z,95.01
2023-05-21T11:56:18.922Z,76.31
2023-05-21T11:57:19.017Z,73.28
2023-05-21T11:58:19.219Z,77.52
2023-05-21T11:59:19.366Z,78.19
2023-05-21T12:00:19.434Z,71.42
2023-05-21T12:01:19.277Z,70.47
2023-05-21T12:02:19.127Z,69.38
2023-05-21T12:03:19.022Z,73.29
2023-05-21T12:04:18.972Z,74.87
2023-05-21T12:05:19.074Z,80.69
2023-05-21T12:06:19.292Z,71.08
2023-05-21T12:07:19.292Z,65.90
2023-05-21T12:08:19.458Z,72.38
2023-05-21T12:09:19.536Z,66.62
2023-05-21T12:10:19.737Z,61.21
2023-05-21T12:11:19.850Z,64.73
2023-05-21T12:12:19.988Z,63.91
2023-05-21T12:13:20.142Z,62.36
2023-05-21T12:14:20.245Z,65.21
2023-05-21T12:15:20.414Z,66.89
2023-05-21T12:16:20.534Z,59.02
2023-05-21T12:17:20.813Z,35.39
2023-05-21T12:18:20.723Z,49.92
2023-05-21T12:19:20.948Z,64.18
2023-05-21T12:20:21.132Z,86.69
2023-05-21T12:21:21.098Z,105.14
2023-05-21T12:22:21.212Z,115.41
2023-05-21T12:23:21.418Z,114.76
2023-05-21T12:24:21.492Z,120.77
2023-05-21T12:25:21.687Z,118.23
2023-05-21T12:26:21.767Z,101.46
2023-05-21T12:27:21.890Z,89.04
2023-05-21T12:28:21.981Z,81.64
2023-05-21T12:29:22.152Z,90.98
2023-05-21T12:30:22.261Z,107.77
2023-05-21T12:31:22.539Z,119.07
2023-05-21T12:32:22.570Z,126.43
2023-05-21T12:33:25.107Z,114.88
2023-05-21T12:34:22.665Z,105.73
2023-05-21T12:35:22.754Z,91.80
2023-05-21T12:36:22.406Z,86.51